Race Coverage Navigation

TS # 22 / Walsh, CO  2019

 


TS STATS
TS Distance 68.35 
Total Distance 1340.66 
Miles To Go 1729.62 
TS Climbing 1291 
Total Climbing
TS  Elevation
TS  Net Elevation 2042 
Map Filename Open Map 
Directions Filename  
Latitude 37.39 
Longitude -102.28 
Google Map  TimeStation Map 


TS Arrival Data
Arr Ord  #/Name Arrival DT TS Dst Avg This TS Avg Overall Ascending
 1 607 - Sabine Bird (Team Bean)  06/17/2019 19:03 68.35  7.52  9.12 
 2 605 - Christian Echavarria  06/17/2019 16:36 68.35  14.14  9.3 
 3 161 - Seana Hogan  06/17/2019 10:51 68.35  12.39  9.66 
 4 608 - Elin Starup  06/17/2019 10:07 68.35  7.77  9.71 
 5 527 - TALABARDON (Herve Talabardon)  06/17/2019 8:24 68.35  8.42  9.86 
 6 618 - GREGORY ROBINSON  06/17/2019 8:03 68.35  9.09  9.87 
 7 539 - Kari Rouvinen  06/17/2019 6:51 68.35  6.61  9.98 
 8 424 - Team i RON man Veterans supporting Veterans  06/17/2019 5:42 68.35  8.73  10.07 
 9 399 - Valerio Zamboni  06/17/2019 0:26 68.35  11.02  10.48 
 10 610 - Kabir Rachure  06/16/2019 20:45 68.35  13.1  10.78 
 11 510 - John C. Tarlton  06/16/2019 16:41 68.35  13.19  11.15 
 12 411 - Geoff Brunner  06/16/2019 15:32 68.35  15.19  11.27 
 13 559 - Team Martin RAAM 2019 (Martin Bergmeister)  06/16/2019 13:45 68.35  16.6  11.43 
 14 604 - Chieko Ozawa  06/16/2019 13:02 68.35  7.9  11.46 
 15 611 - Marcelo Soares " MIXIRICA "  06/16/2019 12:53 68.35  13.95  11.5 
 16 442 - Joe Barr  06/16/2019 12:30 68.35  18.23  11.56 
 17 568 - Alexandra Meixner  06/16/2019 11:02 68.35  14.49  11.66 
 18 367 - Daniela Genovesi  06/16/2019 9:42 68.35  8.2  11.8 
 19 615 - Philipp Amhof  06/16/2019 8:27 68.35  16.08  11.95 
 20 603 - Alan Bradley  06/16/2019 8:15 68.35  17.91  11.98 
 21 416 - Leah Goldstein  06/16/2019 5:45 68.35  9.2  12.23 
 22 622 - Thomas Odom-Team Kyle Pease Foundation  06/16/2019 4:12 68.35  8.1  12.41 
 23 623 - Ultra Paka Racing Team (Daniel Polman)  06/16/2019 4:10 68.35  12.47  12.41 
 24 329 - Peter Oyler  06/16/2019 1:03 68.35  11.68  12.84 
 25 612 - Markus K. Brandl  06/15/2019 22:23 68.35  14.14  13.13 
 26 T205 - Prevent Breast Cancer powered by Endomag  06/19/2019 20:41 68.35  18.47  13.2 
 27 T210 - Bike Wine Team  06/19/2019 18:31 68.35  17.75  13.49 
 28 529 - Isa Pulver  06/15/2019 18:59 68.35  12.94  13.56 
 29 617 - SOLO.kiwi (Craig Harper)  06/15/2019 17:08 68.35  15.36  13.84 
 30 T203 - JPsDuo  06/19/2019 14:17 68.35  18.56  14.08 
 31 288 - Dave Haase  06/15/2019 13:00 68.35  16.74  14.51 
 32 T409 - Serpentine Golden Girls  06/19/2019 11:37 68.35  18.31  14.53 
 33 609 - Jakob Olsen  06/15/2019 12:15 68.35  17.91  14.59 
 34 T207 - Team Life Time  06/19/2019 9:34 68.35  16.88  14.82 
 35 279 - Marko Baloh  06/15/2019 10:09 68.35  12.7  14.98 
 36 T200 - AIR RELAX GoPro TEAM BRASIL  06/19/2019 8:04 68.35  15.65  15.05 
 37 T417 - Team4RAAM 2019 powered by TGW Living Logistics  06/19/2019 7:35 68.35  13.72  15.21 
 38 T801 - Mind Over Matter  06/19/2019 4:32 68.35  20  15.77 
 39 T402 - EA/WFP RAAM Team  06/19/2019 2:46 68.35  25.16  16.04 
 40 T806 - Team SuperMarrow  06/19/2019 2:53 68.35  22.17  16.09 
 41 T413 - TEAM BRASIL - SKIPPER  06/19/2019 2:14 68.35  18.31  16.18 
 42 T204 - Lucan CRC  06/19/2019 1:20 68.35  18.56  16.3 
 43 T415 - TEAM FIRE VELO 935  06/19/2019 0:28 68.35  19.72  16.54 
 44 T206 - Project Linear Acceleration  06/18/2019 23:45 68.35  16.21  16.62 
 45 T405 - High Rollers  06/18/2019 23:47 68.35  15.13  16.65 
 46 T803 - Team EndoPark  06/18/2019 23:19 68.35  14.97  16.8 
 47 T202 - Integra Medical - BAA Racing  06/18/2019 21:52 68.35  17.53  17.01 
 48 T414 - Brazil Nuts  06/18/2019 21:38 68.35  17.99  17.14 
 49 T403 - EKJ Denmark  06/18/2019 21:14 68.35  18.15  17.18 
 50 T410 - Soap-Aid  06/18/2019 20:40 68.35  17.45  17.34 
 51 377 - Christoph Strasser  06/14/2019 21:39 68.35  18.07  17.41 
 52 T418 - The Opportunists  06/18/2019 18:46 68.35  20.92  17.8 
 53 T808 - Antonia's Friends 2019  06/18/2019 16:14 68.35  20.4  18.46 
 54 T406 - Operation Walk Midwest  06/18/2019 20:53 68.35  21.14  18.49 
 55 T406 - Operation Walk Midwest  06/18/2019 15:47 68.35  21.14  18.49 
 56 T400 - Cantastic4  06/18/2019 15:08 68.35  23.84  18.63 
 57 T408 - Radeln-fuer-Kinder (Cycling-for-Kids)  06/18/2019 14:36 68.35  24.12  18.8 
 58 T804 - Team FSHD Skyland Trail  06/18/2019 14:45 68.35  23.57  18.83 
 59 T416 - Team Rotary Raams Polio  06/18/2019 13:46 68.35  24.41  19.06 
 60 T412 - Team Aspect  06/18/2019 13:05 68.35  24.56  19.23 
 61 T802 - Scorchers  06/18/2019 13:13 68.35  26.12  19.23 
 62 T407 - Julian Becker   06/18/2019 11:49 68.35  23.84  19.56 
 63 T807 - Team ZOE International  06/18/2019 11:47 68.35  24.85  19.66 
 64 T201 - EAT WELL  06/18/2019 10:24 68.35  24.27  19.9 
 65 T805 - Team Oceanside  06/18/2019 10:54 68.35  24.7  19.91 
 66 T404 - Gentlemen of speed  06/18/2019 6:34 68.35  25.16  21.17 
 67 T401 - Data Techniques powered by Networks Centre  06/18/2019 6:07 68.35  25.31  21.3 
 68 T800 - Backstedt Racing Project 14  06/18/2019 3:33 68.35  26.98  22.32 
 69 T411 - team alpha - tischlerei groemmer  06/18/2019 2:51 68.35  27.16  22.53